createdAt,value
2023-02-22T00:02:30.074Z,44.86
2023-02-22T00:05:36.472Z,44.92
2023-02-22T00:08:13.158Z,45.95
2023-02-22T00:10:41.679Z,46.44
2023-02-22T00:13:14.864Z,45.52
2023-02-22T01:38:50.930Z,49.67
2023-02-22T02:31:40.636Z,47.75
2023-02-22T02:34:43.376Z,47.31
2023-02-22T02:37:32.226Z,47.80
2023-02-22T02:40:30.446Z,48.51
2023-02-22T02:44:01.521Z,48.54
2023-02-22T02:46:57.147Z,49.44
2023-02-22T02:50:01.352Z,50.25
2023-02-22T02:55:25.734Z,49.45
2023-02-22T02:57:54.737Z,49.35
2023-02-22T03:00:32.542Z,49.18
2023-02-22T03:03:26.255Z,49.11
2023-02-22T03:06:21.123Z,49.45
2023-02-22T03:09:10.136Z,49.21
2023-02-22T03:12:11.775Z,48.90
2023-02-22T03:14:57.323Z,49.46
2023-02-22T03:17:34.535Z,48.38
2023-02-22T03:20:38.548Z,49.14
2023-02-22T03:23:26.234Z,48.69
2023-02-22T03:26:06.173Z,48.96
2023-02-22T03:28:37.491Z,48.80
2023-02-22T03:31:14.007Z,49.21
2023-02-22T03:33:54.038Z,49.57
2023-02-22T03:36:40.339Z,49.52
2023-02-22T03:39:17.292Z,49.25
2023-02-22T03:41:52.623Z,48.71
2023-02-22T03:44:26.422Z,48.84
2023-02-22T03:46:59.952Z,48.06
2023-02-22T03:49:36.209Z,48.04
2023-02-22T03:52:06.351Z,47.96
2023-02-22T03:54:35.923Z,47.71
2023-02-22T03:57:36.393Z,48.63
2023-02-22T04:00:10.034Z,48.92
2023-02-22T04:02:39.132Z,48.28
2023-02-22T04:05:08.358Z,48.56
2023-02-22T04:07:37.385Z,48.32
2023-02-22T04:10:09.794Z,48.54
2023-02-22T04:12:39.177Z,47.90
2023-02-22T04:15:10.181Z,48.93
2023-02-22T04:17:38.447Z,48.38
2023-02-22T04:20:08.149Z,48.76
2023-02-22T04:22:36.516Z,48.55
2023-02-22T04:25:05.033Z,49.07
2023-02-22T04:27:33.471Z,49.23
2023-02-22T04:30:01.768Z,49.03
2023-02-22T04:32:30.091Z,49.11
2023-02-22T04:34:58.359Z,49.57
2023-02-22T04:37:29.680Z,50.29
2023-02-22T04:39:58.009Z,49.64
2023-02-22T04:42:26.292Z,49.32
2023-02-22T04:44:57.624Z,49.66
2023-02-22T04:47:26.348Z,49.72
2023-02-22T04:49:55.109Z,49.46
2023-02-22T04:52:24.117Z,50.06
2023-02-22T04:54:58.628Z,50.52
2023-02-22T04:57:36.362Z,49.48
2023-02-22T05:00:06.903Z,49.88
2023-02-22T05:02:36.101Z,49.92
2023-02-22T05:05:06.842Z,50.05
2023-02-22T05:08:00.124Z,49.75
2023-02-22T05:10:28.581Z,49.50
2023-02-22T05:15:22.503Z,49.99
2023-02-22T05:17:59.150Z,50.35
2023-02-22T05:20:36.920Z,50.76
2023-02-22T05:23:06.387Z,50.09
2023-02-22T05:26:08.128Z,50.54
2023-02-22T05:28:59.067Z,51.49
2023-02-22T05:31:27.578Z,50.45
2023-02-22T05:33:56.364Z,50.06
2023-02-22T05:36:25.497Z,49.88
2023-02-22T05:39:00.594Z,50.11
2023-02-22T05:41:30.415Z,50.77
2023-02-22T05:43:58.982Z,50.89
2023-02-22T05:46:27.403Z,50.63
2023-02-22T05:48:56.457Z,50.37
2023-02-22T05:52:00.567Z,50.60
2023-02-22T05:54:28.988Z,50.46
2023-02-22T05:57:00.326Z,50.85
2023-02-22T05:59:28.789Z,50.40
2023-02-22T06:02:00.265Z,51.51
2023-02-22T06:04:28.901Z,51.72
2023-02-22T06:06:58.793Z,51.45
2023-02-22T06:09:27.113Z,51.13
2023-02-22T06:11:58.300Z,50.52
2023-02-22T06:14:29.080Z,50.84
2023-02-22T06:16:58.916Z,50.85
2023-02-22T06:19:27.890Z,51.06
2023-02-22T06:22:00.879Z,51.53
2023-02-22T06:24:29.221Z,51.46
2023-02-22T06:26:59.410Z,51.39
2023-02-22T06:29:30.794Z,51.81
2023-02-22T06:31:59.350Z,51.33
2023-02-22T06:34:30.819Z,51.85
2023-02-22T06:37:00.061Z,51.60
2023-02-22T06:39:28.642Z,51.34
2023-02-22T06:41:58.590Z,51.13
2023-02-22T06:44:26.995Z,51.21
2023-02-22T06:47:01.497Z,51.57
2023-02-22T06:49:29.920Z,51.61
2023-02-22T06:51:58.401Z,51.21
2023-02-22T06:54:28.074Z,51.47
2023-02-22T06:56:59.201Z,52.09
2023-02-22T06:59:28.828Z,51.87
2023-02-22T07:01:57.492Z,51.78
2023-02-22T07:04:26.203Z,51.43
2023-02-22T07:06:55.731Z,51.61
2023-02-22T07:09:26.768Z,51.81
2023-02-22T07:11:58.265Z,51.26
2023-02-22T07:14:33.673Z,52.04
2023-02-22T07:17:02.644Z,51.48
2023-02-22T07:19:31.038Z,51.79
2023-02-22T07:22:00.412Z,51.54
2023-02-22T07:24:31.418Z,51.07
2023-02-22T07:27:02.290Z,50.77
2023-02-22T07:29:32.325Z,50.43
2023-02-22T07:32:01.230Z,49.91
2023-02-22T07:34:29.691Z,50.02
2023-02-22T07:37:01.095Z,50.21
2023-02-22T07:39:29.414Z,50.74
2023-02-22T07:41:57.645Z,51.16
2023-02-22T07:44:29.790Z,50.88
2023-02-22T07:46:58.116Z,51.13
2023-02-22T07:49:26.612Z,51.08
2023-02-22T07:51:55.445Z,51.27
2023-02-22T07:54:32.877Z,51.68
2023-02-22T07:57:02.035Z,51.91
2023-02-22T07:59:30.402Z,51.98
2023-02-22T08:01:58.787Z,51.76
2023-02-22T08:04:27.373Z,52.10
2023-02-22T08:06:56.057Z,52.24
2023-02-22T08:09:24.974Z,52.08
2023-02-22T08:11:54.126Z,51.59
2023-02-22T08:14:28.449Z,51.62
2023-02-22T08:16:57.049Z,51.99
2023-02-22T08:19:25.914Z,52.38
2023-02-22T08:21:54.766Z,52.35
2023-02-22T08:24:23.447Z,52.31
2023-02-22T08:26:52.417Z,51.87
2023-02-22T08:29:21.393Z,51.98
2023-02-22T08:31:56.227Z,52.07
2023-02-22T08:34:25.723Z,52.30
2023-02-22T08:36:55.060Z,52.16
2023-02-22T08:39:23.972Z,51.59
2023-02-22T08:41:52.885Z,52.16
2023-02-22T08:44:22.274Z,51.74
2023-02-22T08:46:51.290Z,51.38
2023-02-22T08:49:21.807Z,51.34
2023-02-22T08:51:50.079Z,51.10
2023-02-22T08:54:19.496Z,51.66
2023-02-22T08:56:48.670Z,50.78
2023-02-22T08:59:18.533Z,51.13
2023-02-22T09:01:47.588Z,50.99
2023-02-22T09:04:30.198Z,51.33
2023-02-22T09:06:58.542Z,51.22
2023-02-22T09:09:26.800Z,51.25
2023-02-22T09:11:55.359Z,50.83
2023-02-22T09:14:24.237Z,51.19
2023-02-22T09:16:53.178Z,50.91
2023-02-22T09:19:27.950Z,51.34
2023-02-22T09:21:58.092Z,51.67
2023-02-22T09:24:29.705Z,51.86
2023-02-22T09:26:57.674Z,51.83
2023-02-22T09:29:28.135Z,51.27
2023-02-22T09:31:59.688Z,51.21
2023-02-22T09:34:30.606Z,51.78
2023-02-22T09:36:59.119Z,51.00
2023-02-22T09:39:27.587Z,51.39
2023-02-22T09:42:15.095Z,51.95
2023-02-22T09:44:54.822Z,51.97
2023-02-22T09:47:33.266Z,51.69
2023-02-22T09:50:31.435Z,52.29
2023-02-22T09:53:30.475Z,51.50
2023-02-22T09:56:08.260Z,51.49
2023-02-22T09:58:44.207Z,51.66
2023-02-22T10:01:33.777Z,51.93
2023-02-22T10:04:04.928Z,52.10
2023-02-22T10:06:36.407Z,51.80
2023-02-22T10:09:09.216Z,51.39
2023-02-22T10:11:59.296Z,51.90
2023-02-22T10:14:53.012Z,52.40
2023-02-22T10:17:37.816Z,52.69
2023-02-22T10:20:16.431Z,52.90
2023-02-22T10:23:35.412Z,52.58
2023-02-22T10:26:26.967Z,52.84
2023-02-22T10:29:00.370Z,52.51
2023-02-22T10:31:36.711Z,52.71
2023-02-22T10:34:13.810Z,52.61
2023-02-22T10:36:52.364Z,52.67
2023-02-22T10:39:33.894Z,52.95
2023-02-22T10:42:08.923Z,52.82
2023-02-22T10:44:39.759Z,52.77
2023-02-22T10:47:12.466Z,52.59
2023-02-22T10:49:48.906Z,52.45
2023-02-22T10:52:26.911Z,52.14
2023-02-22T10:55:13.606Z,52.16
2023-02-22T10:57:46.835Z,52.60
2023-02-22T11:00:46.603Z,52.46
2023-02-22T11:03:24.219Z,52.65
2023-02-22T11:05:53.748Z,52.63
2023-02-22T11:08:34.422Z,52.37
2023-02-22T11:11:05.835Z,52.34
2023-02-22T11:13:39.654Z,52.16
2023-02-22T11:16:32.699Z,51.84
2023-02-22T11:19:27.055Z,51.79
2023-02-22T11:22:23.703Z,51.75
2023-02-22T11:25:04.239Z,51.94
2023-02-22T11:27:48.115Z,52.00
2023-02-22T11:30:30.257Z,51.66
2023-02-22T11:33:24.505Z,51.44
2023-02-22T11:35:59.040Z,51.26
2023-02-22T11:38:33.334Z,50.82
2023-02-22T11:41:17.600Z,50.65
2023-02-22T11:43:49.429Z,51.07
2023-02-22T11:46:22.577Z,51.38
2023-02-22T11:49:09.684Z,51.83
2023-02-22T11:52:05.370Z,51.73
2023-02-22T11:54:34.098Z,52.16
2023-02-22T11:57:22.962Z,51.56
2023-02-22T12:00:26.948Z,51.39
2023-02-22T12:03:04.455Z,51.46
2023-02-22T12:06:04.528Z,50.87
2023-02-22T12:08:42.234Z,50.80
2023-02-22T12:11:45.654Z,50.84
2023-02-22T12:14:40.579Z,51.37
2023-02-22T12:17:33.474Z,51.11
2023-02-22T12:20:11.213Z,51.17
2023-02-22T12:22:48.183Z,51.72
2023-02-22T12:25:25.835Z,52.16
2023-02-22T12:27:56.214Z,52.40
2023-02-22T12:30:43.236Z,52.03
2023-02-22T12:33:30.916Z,52.41
2023-02-22T12:36:02.214Z,52.57
2023-02-22T12:38:45.510Z,52.85
2023-02-22T12:44:18.503Z,52.66
2023-02-22T12:46:56.417Z,52.73
2023-02-22T12:49:53.086Z,52.50
2023-02-22T12:52:43.422Z,52.87
2023-02-22T12:55:18.666Z,52.56
2023-02-22T12:58:08.422Z,52.67
2023-02-22T13:00:59.839Z,52.63
2023-02-22T13:03:45.876Z,52.16
2023-02-22T13:06:26.072Z,52.56
2023-02-22T13:09:38.342Z,53.08
2023-02-22T13:12:26.535Z,53.00
2023-02-22T13:15:00.767Z,53.16
2023-02-22T13:17:51.257Z,53.14
2023-02-22T13:20:30.062Z,53.00
2023-02-22T13:23:17.185Z,53.19
2023-02-22T13:26:29.916Z,53.37
2023-02-22T13:29:29.540Z,53.66
2023-02-22T13:32:33.031Z,54.01
2023-02-22T13:36:24.335Z,54.49
2023-02-22T13:39:16.695Z,54.59
2023-02-22T13:42:12.472Z,55.02
2023-02-22T13:45:09.714Z,54.83
2023-02-22T13:47:53.559Z,55.32
2023-02-22T13:50:40.122Z,55.63
2023-02-22T13:54:24.276Z,56.11
2023-02-22T13:57:05.716Z,55.94
2023-02-22T13:59:36.906Z,55.83
2023-02-22T14:02:10.767Z,55.51
2023-02-22T14:04:43.756Z,55.39
2023-02-22T14:07:27.439Z,55.09
2023-02-22T14:10:05.738Z,54.82
2023-02-22T14:12:37.110Z,55.26
2023-02-22T14:15:26.786Z,54.75
2023-02-22T14:18:04.633Z,54.92
2023-02-22T14:20:37.709Z,55.31
2023-02-22T14:23:35.692Z,55.70
2023-02-22T14:26:23.154Z,55.73
2023-02-22T14:29:03.936Z,55.95
2023-02-22T14:31:38.175Z,55.99
2023-02-22T14:34:11.153Z,56.06
2023-02-22T14:36:48.531Z,55.92
2023-02-22T14:39:39.409Z,55.38
2023-02-22T14:42:26.731Z,55.40
2023-02-22T14:45:36.782Z,55.45
2023-02-22T14:48:39.878Z,55.66
2023-02-22T14:51:23.664Z,55.61
2023-02-22T14:53:53.456Z,55.82
2023-02-22T14:56:54.939Z,56.33
2023-02-22T14:59:29.879Z,56.63
2023-02-22T15:02:12.858Z,56.88
2023-02-22T15:04:44.917Z,56.62
2023-02-22T15:07:28.197Z,57.42
2023-02-22T15:10:18.706Z,58.17
2023-02-22T15:13:11.468Z,57.24
2023-02-22T15:15:48.929Z,57.99
2023-02-22T15:18:30.369Z,57.58
2023-02-22T15:21:07.018Z,56.99
2023-02-22T15:23:45.415Z,57.17
2023-02-22T15:26:19.502Z,57.36
2023-02-22T15:28:58.640Z,57.13
2023-02-22T15:31:32.832Z,57.16
2023-02-22T15:34:32.287Z,56.95
2023-02-22T15:37:26.002Z,57.23
2023-02-22T15:40:00.132Z,57.47
2023-02-22T15:42:31.206Z,57.17
2023-02-22T15:44:59.662Z,57.12
2023-02-22T15:47:30.452Z,56.88
2023-02-22T15:50:24.424Z,56.50
2023-02-22T15:53:06.661Z,55.96
2023-02-22T15:55:38.745Z,56.05
2023-02-22T15:58:19.600Z,55.88
2023-02-22T16:01:00.569Z,55.49
2023-02-22T16:03:34.014Z,55.37
2023-02-22T16:06:02.742Z,55.36
2023-02-22T16:08:54.776Z,54.93
2023-02-22T16:11:36.149Z,54.41
2023-02-22T16:14:07.858Z,54.10
2023-02-22T16:16:42.709Z,53.94
2023-02-22T16:19:29.679Z,52.70
2023-02-22T16:22:03.791Z,52.81
2023-02-22T16:24:35.016Z,51.86
2023-02-22T16:27:08.310Z,51.86
2023-02-22T16:29:36.640Z,52.02
2023-02-22T16:32:08.453Z,51.64
2023-02-22T16:34:36.884Z,50.95
2023-02-22T16:37:05.242Z,50.37
2023-02-22T16:39:36.883Z,50.02
2023-02-22T16:42:10.829Z,49.75
2023-02-22T16:44:39.167Z,49.07
2023-02-22T16:47:07.590Z,49.07
2023-02-22T16:49:35.892Z,49.22
2023-02-22T16:52:08.517Z,48.73
2023-02-22T16:54:42.457Z,48.51
2023-02-22T16:57:21.847Z,48.62
2023-02-22T16:59:53.528Z,47.60
2023-02-22T17:02:22.641Z,47.57
2023-02-22T17:04:51.175Z,47.83
2023-02-22T17:07:31.710Z,47.83
2023-02-22T17:10:00.268Z,47.87
2023-02-22T17:12:33.003Z,47.35
2023-02-22T17:15:01.405Z,47.45
2023-02-22T17:17:31.775Z,47.14
2023-02-22T17:20:02.589Z,47.12
2023-02-22T17:22:30.946Z,47.46
2023-02-22T17:24:59.190Z,46.97
2023-02-22T17:27:27.514Z,46.66
2023-02-22T17:29:55.830Z,45.92
2023-02-22T17:32:24.111Z,45.68
2023-02-22T17:34:53.011Z,45.68
2023-02-22T17:37:21.339Z,45.89
2023-02-22T17:39:49.585Z,44.81
2023-02-22T17:42:17.960Z,45.03
2023-02-22T17:44:46.235Z,45.23
2023-02-22T17:47:14.496Z,45.18
2023-02-22T17:49:42.835Z,45.01
2023-02-22T17:52:16.449Z,44.60
2023-02-22T17:54:44.774Z,43.95
2023-02-22T17:57:13.133Z,44.20
2023-02-22T17:59:41.480Z,43.48
2023-02-22T18:02:11.692Z,44.00
2023-02-22T18:04:41.435Z,43.99
2023-02-22T18:07:10.735Z,43.75
2023-02-22T18:09:39.014Z,43.70
2023-02-22T18:12:07.367Z,43.23
2023-02-22T18:14:35.677Z,43.21
2023-02-22T18:17:03.925Z,42.36
2023-02-22T18:19:32.256Z,41.85
2023-02-22T18:22:01.146Z,42.41
2023-02-22T18:24:31.986Z,42.14
2023-02-22T18:27:00.650Z,42.83
2023-02-22T18:29:29.804Z,42.61
2023-02-22T18:31:58.288Z,42.21
2023-02-22T18:34:26.705Z,42.46
2023-02-22T18:36:56.166Z,42.02
2023-02-22T18:39:24.434Z,42.04
2023-02-22T18:41:52.791Z,42.15
2023-02-22T18:44:21.556Z,42.29
2023-02-22T18:46:49.889Z,42.12
2023-02-22T18:49:18.333Z,41.86
2023-02-22T18:51:47.233Z,41.51
2023-02-22T18:54:15.612Z,41.80
2023-02-22T18:56:43.911Z,40.88
2023-02-22T18:59:16.549Z,41.09
2023-02-22T19:01:49.669Z,40.93
2023-02-22T19:04:19.086Z,41.88
2023-02-22T19:06:49.815Z,41.04
2023-02-22T19:09:18.795Z,40.77
2023-02-22T19:11:49.134Z,41.23
2023-02-22T19:14:18.336Z,40.31
2023-02-22T19:16:49.414Z,40.44
2023-02-22T19:19:23.199Z,40.73
2023-02-22T19:21:53.079Z,41.76
2023-02-22T19:24:21.580Z,41.89
2023-02-22T19:26:54.574Z,42.22
2023-02-22T19:29:25.962Z,40.55
2023-02-22T19:31:54.608Z,38.34
2023-02-22T19:34:25.292Z,40.67
2023-02-22T19:36:53.699Z,41.56
2023-02-22T19:41:52.017Z,41.43
2023-02-22T19:44:20.352Z,40.98
2023-02-22T19:46:52.790Z,39.34
2023-02-22T19:49:21.191Z,40.13
2023-02-22T19:51:49.548Z,41.64
2023-02-22T19:54:22.198Z,41.44
2023-02-22T19:56:52.084Z,41.42
2023-02-22T19:59:24.457Z,41.38
2023-02-22T20:01:56.357Z,40.55
2023-02-22T20:04:25.627Z,40.81
2023-02-22T20:06:55.612Z,41.33
2023-02-22T20:09:41.181Z,40.15
2023-02-22T20:12:09.726Z,40.14
2023-02-22T20:14:38.172Z,40.61
2023-02-22T20:17:07.884Z,40.55
2023-02-22T20:19:38.133Z,41.17
2023-02-22T20:22:06.393Z,41.33
2023-02-22T20:24:34.663Z,40.55
2023-02-22T20:27:02.910Z,40.94
2023-02-22T20:29:31.373Z,40.69
2023-02-22T20:32:01.674Z,41.37
2023-02-22T20:34:34.441Z,40.94
2023-02-22T20:37:03.588Z,39.26
2023-02-22T20:39:32.498Z,39.04
2023-02-22T20:45:16.015Z,35.81
2023-02-22T20:47:45.195Z,36.52
2023-02-22T20:52:49.474Z,37.55
2023-02-22T20:58:28.000Z,36.66
